KSMF data

Available data for KSMF from the past 2 hours
SACRAMENTO/METRO, CA
Metar
KSMF 180653Z 04005KT 2SM FU HZ FEW017 04/02 A3005 RMK AO2 SLP175 FU FEW017 T00440022

06:53 UTC

Wind: 40° 5kt

Visibility: 2 SM

Sky: FEW 1700 ft

Temp: 4 deg C / 39.2 deg F

Dewpoint: 2 deg C / 35.6 deg F

Pressure: 30.05 inHg

TAF
KSMF 180542Z 1806/1906 VRB03KT 2SM FU HZ SCT012